sensor_id;sensor_type;location;lat;lon;timestamp;temperature;humidity
16655;DHT22;8441;51.344;7.022;2023-10-09T00:00:34;14.50;99.90
16655;DHT22;8441;51.344;7.022;2023-10-09T00:03:21;14.50;99.90
16655;DHT22;8441;51.344;7.022;2023-10-09T00:05:49;14.40;99.90
16655;DHT22;8441;51.344;7.022;2023-10-09T00:08:20;14.40;99.90
16655;DHT22;8441;51.344;7.022;2023-10-09T00:10:52;14.50;99.90
16655;DHT22;8441;51.344;7.022;2023-10-09T00:13:20;14.50;99.90
16655;DHT22;8441;51.344;7.022;2023-10-09T00:15:53;14.50;99.90
16655;DHT22;8441;51.344;7.022;2023-10-09T00:18:26;14.40;99.90
16655;DHT22;8441;51.344;7.022;2023-10-09T00:20:56;14.40;99.90
16655;DHT22;8441;51.344;7.022;2023-10-09T00:23:28;14.40;99.90
16655;DHT22;8441;51.344;7.022;2023-10-09T00:25:59;14.40;99.90
16655;DHT22;8441;51.344;7.022;2023-10-09T00:28:36;14.50;99.90
16655;DHT22;8441;51.344;7.022;2023-10-09T00:31:07;14.50;99.90
16655;DHT22;8441;51.344;7.022;2023-10-09T00:33:40;14.40;99.90
16655;DHT22;8441;51.344;7.022;2023-10-09T00:36:08;14.40;99.90
16655;DHT22;8441;51.344;7.022;2023-10-09T00:38:38;14.40;99.90
16655;DHT22;8441;51.344;7.022;2023-10-09T00:41:10;14.40;99.90
16655;DHT22;8441;51.344;7.022;2023-10-09T00:43:38;14.40;99.90
16655;DHT22;8441;51.344;7.022;2023-10-09T00:46:09;14.40;99.90
16655;DHT22;8441;51.344;7.022;2023-10-09T00:48:52;14.40;99.90
16655;DHT22;8441;51.344;7.022;2023-10-09T00:51:22;14.40;99.90
16655;DHT22;8441;51.344;7.022;2023-10-09T00:53:53;14.50;99.90
16655;DHT22;8441;51.344;7.022;2023-10-09T00:56:23;14.60;99.90
16655;DHT22;8441;51.344;7.022;2023-10-09T00:59:04;14.70;99.90
16655;DHT22;8441;51.344;7.022;2023-10-09T01:01:34;14.80;99.90
16655;DHT22;8441;51.344;7.022;2023-10-09T01:04:03;14.90;99.90
16655;DHT22;8441;51.344;7.022;2023-10-09T01:06:36;14.90;99.90
16655;DHT22;8441;51.344;7.022;2023-10-09T01:09:11;15.00;99.90
16655;DHT22;8441;51.344;7.022;2023-10-09T01:11:40;15.00;99.90
16655;DHT22;8441;51.344;7.022;2023-10-09T01:14:29;14.90;99.90
16655;DHT22;8441;51.344;7.022;2023-10-09T01:16:57;14.90;99.90
16655;DHT22;8441;51.344;7.022;2023-10-09T01:19:26;15.00;99.90
16655;DHT22;8441;51.344;7.022;2023-10-09T01:21:53;15.00;99.90
16655;DHT22;8441;51.344;7.022;2023-10-09T01:24:22;14.90;99.90
16655;DHT22;8441;51.344;7.022;2023-10-09T01:26:52;14.80;99.90
16655;DHT22;8441;51.344;7.022;2023-10-09T01:29:21;14.80;99.90
16655;DHT22;8441;51.344;7.022;2023-10-09T01:31:50;14.70;99.90
16655;DHT22;8441;51.344;7.022;2023-10-09T01:34:22;14.80;99.90
16655;DHT22;8441;51.344;7.022;2023-10-09T01:37:04;14.90;99.90
16655;DHT22;8441;51.344;7.022;2023-10-09T01:39:39;14.80;99.90
16655;DHT22;8441;51.344;7.022;2023-10-09T01:42:08;14.80;99.90
16655;DHT22;8441;51.344;7.022;2023-10-09T01:44:36;14.70;99.90
16655;DHT22;8441;51.344;7.022;2023-10-09T01:47:09;14.70;99.90
16655;DHT22;8441;51.344;7.022;2023-10-09T01:49:39;14.60;99.90
16655;DHT22;8441;51.344;7.022;2023-10-09T01:52:10;14.50;99.90
16655;DHT22;8441;51.344;7.022;2023-10-09T01:54:44;14.50;99.90
16655;DHT22;8441;51.344;7.022;2023-10-09T01:57:14;14.40;99.90
16655;DHT22;8441;51.344;7.022;2023-10-09T01:59:48;14.30;99.90
16655;DHT22;8441;51.344;7.022;2023-10-09T02:02:16;14.30;99.90
16655;DHT22;8441;51.344;7.022;2023-10-09T02:04:59;14.20;99.90
16655;DHT22;8441;51.344;7.022;2023-10-09T02:07:35;14.10;99.90
16655;DHT22;8441;51.344;7.022;2023-10-09T02:10:12;14.20;99.90
16655;DHT22;8441;51.344;7.022;2023-10-09T02:12:51;14.20;99.90
16655;DHT22;8441;51.344;7.022;2023-10-09T02:15:23;14.20;99.90
16655;DHT22;8441;51.344;7.022;2023-10-09T02:18:04;14.20;99.90
16655;DHT22;8441;51.344;7.022;2023-10-09T02:20:42;14.20;99.90
16655;DHT22;8441;51.344;7.022;2023-10-09T02:23:12;14.20;99.90
16655;DHT22;8441;51.344;7.022;2023-10-09T02:25:41;14.30;99.90
16655;DHT22;8441;51.344;7.022;2023-10-09T02:28:09;14.40;99.90
16655;DHT22;8441;51.344;7.022;2023-10-09T02:30:43;14.50;99.90
16655;DHT22;8441;51.344;7.022;2023-10-09T02:33:13;14.60;99.90
16655;DHT22;8441;51.344;7.022;2023-10-09T02:35:44;14.60;99.90
16655;DHT22;8441;51.344;7.022;2023-10-09T02:38:17;14.60;99.90
16655;DHT22;8441;51.344;7.022;2023-10-09T02:40:50;14.70;99.90
16655;DHT22;8441;51.344;7.022;2023-10-09T02:43:43;14.70;99.90
16655;DHT22;8441;51.344;7.022;2023-10-09T02:46:12;14.70;99.90
16655;DHT22;8441;51.344;7.022;2023-10-09T02:48:43;14.60;99.90
16655;DHT22;8441;51.344;7.022;2023-10-09T02:51:16;14.60;99.90
16655;DHT22;8441;51.344;7.022;2023-10-09T02:53:59;14.70;99.90
16655;DHT22;8441;51.344;7.022;2023-10-09T02:56:35;14.70;99.90
16655;DHT22;8441;51.344;7.022;2023-10-09T02:59:09;14.80;99.90
16655;DHT22;8441;51.344;7.022;2023-10-09T03:01:40;14.80;99.90
16655;DHT22;8441;51.344;7.022;2023-10-09T03:04:08;14.80;99.90
16655;DHT22;8441;51.344;7.022;2023-10-09T03:06:40;14.80;99.90
16655;DHT22;8441;51.344;7.022;2023-10-09T03:09:15;15.00;99.90
16655;DHT22;8441;51.344;7.022;2023-10-09T03:11:55;15.00;99.90
16655;DHT22;8441;51.344;7.022;2023-10-09T03:14:28;15.00;99.90
16655;DHT22;8441;51.344;7.022;2023-10-09T03:16:56;15.00;99.90
16655;DHT22;8441;51.344;7.022;2023-10-09T03:19:24;15.10;99.90
16655;DHT22;8441;51.344;7.022;2023-10-09T03:21:52;15.10;99.90
16655;DHT22;8441;51.344;7.022;2023-10-09T03:24:19;15.10;99.90
16655;DHT22;8441;51.344;7.022;2023-10-09T03:26:48;15.10;99.90
16655;DHT22;8441;51.344;7.022;2023-10-09T03:29:23;15.10;99.90
16655;DHT22;8441;51.344;7.022;2023-10-09T03:31:50;15.20;99.90
16655;DHT22;8441;51.344;7.022;2023-10-09T03:34:18;15.20;99.90
16655;DHT22;8441;51.344;7.022;2023-10-09T03:36:45;15.20;99.90
16655;DHT22;8441;51.344;7.022;2023-10-09T03:39:13;15.20;99.90
16655;DHT22;8441;51.344;7.022;2023-10-09T03:41:51;15.20;99.90
16655;DHT22;8441;51.344;7.022;2023-10-09T03:44:21;15.20;99.90
16655;DHT22;8441;51.344;7.022;2023-10-09T03:46:49;15.20;99.90
16655;DHT22;8441;51.344;7.022;2023-10-09T03:49:17;15.10;99.90
16655;DHT22;8441;51.344;7.022;2023-10-09T03:51:49;15.10;99.90
16655;DHT22;8441;51.344;7.022;2023-10-09T03:54:16;15.10;99.90
16655;DHT22;8441;51.344;7.022;2023-10-09T03:56:46;15.20;99.90
16655;DHT22;8441;51.344;7.022;2023-10-09T03:59:15;15.10;99.90
16655;DHT22;8441;51.344;7.022;2023-10-09T04:01:44;15.10;99.90
16655;DHT22;8441;51.344;7.022;2023-10-09T04:04:12;15.10;99.90
16655;DHT22;8441;51.344;7.022;2023-10-09T04:06:40;15.10;99.90
16655;DHT22;8441;51.344;7.022;2023-10-09T04:09:09;15.20;99.90
16655;DHT22;8441;51.344;7.022;2023-10-09T04:11:55;15.10;99.90
16655;DHT22;8441;51.344;7.022;2023-10-09T04:14:51;15.10;99.90
16655;DHT22;8441;51.344;7.022;2023-10-09T04:17:21;15.10;99.90
16655;DHT22;8441;51.344;7.022;2023-10-09T04:20:00;15.00;99.90
16655;DHT22;8441;51.344;7.022;2023-10-09T04:22:46;15.00;99.90
16655;DHT22;8441;51.344;7.022;2023-10-09T04:25:17;15.00;99.90
16655;DHT22;8441;51.344;7.022;2023-10-09T04:27:52;15.00;99.90
16655;DHT22;8441;51.344;7.022;2023-10-09T04:30:27;15.00;99.90
16655;DHT22;8441;51.344;7.022;2023-10-09T04:32:55;15.00;99.90
16655;DHT22;8441;51.344;7.022;2023-10-09T04:35:30;14.90;99.90
16655;DHT22;8441;51.344;7.022;2023-10-09T04:37:56;14.90;99.90
16655;DHT22;8441;51.344;7.022;2023-10-09T04:40:30;14.90;99.90
16655;DHT22;8441;51.344;7.022;2023-10-09T04:43:17;14.90;99.90
16655;DHT22;8441;51.344;7.022;2023-10-09T04:45:48;14.90;99.90
16655;DHT22;8441;51.344;7.022;2023-10-09T04:48:41;14.90;99.90
16655;DHT22;8441;51.344;7.022;2023-10-09T04:51:11;14.90;99.90
16655;DHT22;8441;51.344;7.022;2023-10-09T04:54:01;14.90;99.90
16655;DHT22;8441;51.344;7.022;2023-10-09T04:56:39;14.80;99.90
16655;DHT22;8441;51.344;7.022;2023-10-09T04:59:18;14.80;99.90
16655;DHT22;8441;51.344;7.022;2023-10-09T05:01:51;14.80;99.90
16655;DHT22;8441;51.344;7.022;2023-10-09T05:04:24;14.80;99.90
16655;DHT22;8441;51.344;7.022;2023-10-09T05:07:06;14.70;99.90
16655;DHT22;8441;51.344;7.022;2023-10-09T05:09:46;14.70;99.90
16655;DHT22;8441;51.344;7.022;2023-10-09T05:12:32;14.70;99.90
16655;DHT22;8441;51.344;7.022;2023-10-09T05:14:59;14.70;99.90
16655;DHT22;8441;51.344;7.022;2023-10-09T05:17:36;14.60;99.90
16655;DHT22;8441;51.344;7.022;2023-10-09T05:20:05;14.60;99.90
16655;DHT22;8441;51.344;7.022;2023-10-09T05:22:50;14.60;99.90
16655;DHT22;8441;51.344;7.022;2023-10-09T05:25:24;14.60;99.90
16655;DHT22;8441;51.344;7.022;2023-10-09T05:28:11;14.60;99.90
16655;DHT22;8441;51.344;7.022;2023-10-09T05:30:56;14.60;99.90
16655;DHT22;8441;51.344;7.022;2023-10-09T05:33:34;14.70;99.90
16655;DHT22;8441;51.344;7.022;2023-10-09T05:36:03;14.80;99.90
16655;DHT22;8441;51.344;7.022;2023-10-09T05:38:57;14.80;99.90
16655;DHT22;8441;51.344;7.022;2023-10-09T05:41:25;14.90;99.90
16655;DHT22;8441;51.344;7.022;2023-10-09T05:44:12;14.90;99.90
16655;DHT22;8441;51.344;7.022;2023-10-09T05:47:03;14.80;99.90
16655;DHT22;8441;51.344;7.022;2023-10-09T05:49:48;14.70;99.90
16655;DHT22;8441;51.344;7.022;2023-10-09T05:52:29;14.80;99.90
16655;DHT22;8441;51.344;7.022;2023-10-09T05:54:58;14.80;99.90
16655;DHT22;8441;51.344;7.022;2023-10-09T05:58:06;14.70;99.90
16655;DHT22;8441;51.344;7.022;2023-10-09T06:01:06;14.80;99.90
16655;DHT22;8441;51.344;7.022;2023-10-09T06:03:59;15.00;99.90
16655;DHT22;8441;51.344;7.022;2023-10-09T06:06:42;15.00;99.90
16655;DHT22;8441;51.344;7.022;2023-10-09T06:09:11;14.90;99.90
16655;DHT22;8441;51.344;7.022;2023-10-09T06:12:11;14.90;99.90
16655;DHT22;8441;51.344;7.022;2023-10-09T06:14:51;14.90;99.90
16655;DHT22;8441;51.344;7.022;2023-10-09T06:17:44;14.90;99.90
16655;DHT22;8441;51.344;7.022;2023-10-09T06:20:16;14.90;99.90
16655;DHT22;8441;51.344;7.022;2023-10-09T06:23:27;14.80;99.90
16655;DHT22;8441;51.344;7.022;2023-10-09T06:26:08;14.90;99.90
16655;DHT22;8441;51.344;7.022;2023-10-09T06:28:49;14.90;99.90
16655;DHT22;8441;51.344;7.022;2023-10-09T06:31:36;14.90;99.90
16655;DHT22;8441;51.344;7.022;2023-10-09T06:34:17;14.90;99.90
16655;DHT22;8441;51.344;7.022;2023-10-09T06:36:46;14.90;99.90
16655;DHT22;8441;51.344;7.022;2023-10-09T06:39:20;14.90;99.90
16655;DHT22;8441;51.344;7.022;2023-10-09T06:42:05;14.90;99.90
16655;DHT22;8441;51.344;7.022;2023-10-09T06:44:55;15.00;99.90
16655;DHT22;8441;51.344;7.022;2023-10-09T06:47:22;15.10;99.90
16655;DHT22;8441;51.344;7.022;2023-10-09T06:49:50;15.20;99.90
16655;DHT22;8441;51.344;7.022;2023-10-09T06:52:31;15.20;99.90
16655;DHT22;8441;51.344;7.022;2023-10-09T06:55:13;15.20;99.90
16655;DHT22;8441;51.344;7.022;2023-10-09T06:57:45;15.20;99.90
16655;DHT22;8441;51.344;7.022;2023-10-09T07:00:15;15.30;99.90
16655;DHT22;8441;51.344;7.022;2023-10-09T07:02:56;15.30;99.90
16655;DHT22;8441;51.344;7.022;2023-10-09T07:05:23;15.40;99.90
16655;DHT22;8441;51.344;7.022;2023-10-09T07:08:04;15.40;99.90
16655;DHT22;8441;51.344;7.022;2023-10-09T07:10:52;15.50;99.90
16655;DHT22;8441;51.344;7.022;2023-10-09T07:13:38;15.60;99.90
16655;DHT22;8441;51.344;7.022;2023-10-09T07:16:06;15.60;99.90
16655;DHT22;8441;51.344;7.022;2023-10-09T07:18:55;15.70;99.90
16655;DHT22;8441;51.344;7.022;2023-10-09T07:21:35;15.70;99.90
16655;DHT22;8441;51.344;7.022;2023-10-09T07:24:05;15.80;99.90
16655;DHT22;8441;51.344;7.022;2023-10-09T07:26:44;15.80;99.90
16655;DHT22;8441;51.344;7.022;2023-10-09T07:29:18;15.80;99.90
16655;DHT22;8441;51.344;7.022;2023-10-09T07:31:49;15.80;99.90
16655;DHT22;8441;51.344;7.022;2023-10-09T07:34:24;15.80;99.90
16655;DHT22;8441;51.344;7.022;2023-10-09T07:37:14;15.80;99.90
16655;DHT22;8441;51.344;7.022;2023-10-09T07:39:44;15.80;99.90
16655;DHT22;8441;51.344;7.022;2023-10-09T07:42:24;15.90;99.90
16655;DHT22;8441;51.344;7.022;2023-10-09T07:45:10;16.10;99.90
16655;DHT22;8441;51.344;7.022;2023-10-09T07:47:59;16.20;99.90
16655;DHT22;8441;51.344;7.022;2023-10-09T07:50:35;16.40;99.90
16655;DHT22;8441;51.344;7.022;2023-10-09T07:53:07;16.50;99.90
16655;DHT22;8441;51.344;7.022;2023-10-09T07:55:45;16.60;99.90
16655;DHT22;8441;51.344;7.022;2023-10-09T07:58:22;16.60;99.90
16655;DHT22;8441;51.344;7.022;2023-10-09T08:00:53;16.50;99.90
16655;DHT22;8441;51.344;7.022;2023-10-09T08:03:33;16.50;99.90
16655;DHT22;8441;51.344;7.022;2023-10-09T08:06:02;16.30;99.90
16655;DHT22;8441;51.344;7.022;2023-10-09T08:08:54;16.30;99.90
16655;DHT22;8441;51.344;7.022;2023-10-09T08:11:39;16.30;99.90
16655;DHT22;8441;51.344;7.022;2023-10-09T08:14:25;16.30;99.90
16655;DHT22;8441;51.344;7.022;2023-10-09T08:17:06;16.30;99.90
16655;DHT22;8441;51.344;7.022;2023-10-09T08:19:40;16.40;99.90
16655;DHT22;8441;51.344;7.022;2023-10-09T08:22:21;16.50;99.90
16655;DHT22;8441;51.344;7.022;2023-10-09T08:25:09;16.60;99.90
16655;DHT22;8441;51.344;7.022;2023-10-09T08:27:53;16.70;99.90
16655;DHT22;8441;51.344;7.022;2023-10-09T08:30:25;16.80;99.90
16655;DHT22;8441;51.344;7.022;2023-10-09T08:32:54;16.90;99.90
16655;DHT22;8441;51.344;7.022;2023-10-09T08:35:28;17.10;99.90
16655;DHT22;8441;51.344;7.022;2023-10-09T08:38:00;17.30;99.90
16655;DHT22;8441;51.344;7.022;2023-10-09T08:40:34;17.50;99.90
16655;DHT22;8441;51.344;7.022;2023-10-09T08:43:09;17.60;99.90
16655;DHT22;8441;51.344;7.022;2023-10-09T08:45:41;17.60;99.90
16655;DHT22;8441;51.344;7.022;2023-10-09T08:48:11;17.50;99.90
16655;DHT22;8441;51.344;7.022;2023-10-09T08:50:41;17.30;99.90
16655;DHT22;8441;51.344;7.022;2023-10-09T08:53:10;17.30;99.90
16655;DHT22;8441;51.344;7.022;2023-10-09T08:55:37;17.20;99.90
16655;DHT22;8441;51.344;7.022;2023-10-09T08:58:05;17.10;99.90
16655;DHT22;8441;51.344;7.022;2023-10-09T09:00:45;17.10;99.90
16655;DHT22;8441;51.344;7.022;2023-10-09T09:03:14;17.20;99.90
16655;DHT22;8441;51.344;7.022;2023-10-09T09:05:45;17.10;99.90
16655;DHT22;8441;51.344;7.022;2023-10-09T09:08:24;17.10;99.90
16655;DHT22;8441;51.344;7.022;2023-10-09T09:10:57;17.10;99.90
16655;DHT22;8441;51.344;7.022;2023-10-09T09:13:31;17.10;99.90
16655;DHT22;8441;51.344;7.022;2023-10-09T09:16:01;17.30;99.90
16655;DHT22;8441;51.344;7.022;2023-10-09T09:18:28;17.30;99.90
16655;DHT22;8441;51.344;7.022;2023-10-09T09:21:17;17.40;99.90
16655;DHT22;8441;51.344;7.022;2023-10-09T09:23:54;17.60;99.90
16655;DHT22;8441;51.344;7.022;2023-10-09T09:26:35;17.70;99.90
16655;DHT22;8441;51.344;7.022;2023-10-09T09:29:11;17.80;99.90
16655;DHT22;8441;51.344;7.022;2023-10-09T09:31:52;18.00;99.90
16655;DHT22;8441;51.344;7.022;2023-10-09T09:34:19;18.20;99.90
16655;DHT22;8441;51.344;7.022;2023-10-09T09:36:53;18.30;99.90
16655;DHT22;8441;51.344;7.022;2023-10-09T09:39:25;18.50;99.90
16655;DHT22;8441;51.344;7.022;2023-10-09T09:41:57;18.50;99.90
16655;DHT22;8441;51.344;7.022;2023-10-09T09:44:31;18.50;99.90
16655;DHT22;8441;51.344;7.022;2023-10-09T09:47:01;18.50;99.90
16655;DHT22;8441;51.344;7.022;2023-10-09T09:49:30;18.40;99.90
16655;DHT22;8441;51.344;7.022;2023-10-09T09:52:01;18.50;99.90
16655;DHT22;8441;51.344;7.022;2023-10-09T09:54:36;18.50;99.90
16655;DHT22;8441;51.344;7.022;2023-10-09T09:57:04;18.60;99.90
16655;DHT22;8441;51.344;7.022;2023-10-09T09:59:39;18.80;99.90
16655;DHT22;8441;51.344;7.022;2023-10-09T10:02:24;18.90;99.90
16655;DHT22;8441;51.344;7.022;2023-10-09T10:04:57;18.80;99.90
16655;DHT22;8441;51.344;7.022;2023-10-09T10:07:27;18.80;99.90
16655;DHT22;8441;51.344;7.022;2023-10-09T10:09:56;18.70;99.90
16655;DHT22;8441;51.344;7.022;2023-10-09T10:15:58;18.90;99.90
16655;DHT22;8441;51.344;7.022;2023-10-09T10:18:32;19.20;99.90
16655;DHT22;8441;51.344;7.022;2023-10-09T10:21:11;19.10;99.90
16655;DHT22;8441;51.344;7.022;2023-10-09T10:23:42;19.20;99.90
16655;DHT22;8441;51.344;7.022;2023-10-09T10:26:19;19.20;99.90
16655;DHT22;8441;51.344;7.022;2023-10-09T10:29:17;19.20;99.90
16655;DHT22;8441;51.344;7.022;2023-10-09T10:31:56;19.20;99.90
16655;DHT22;8441;51.344;7.022;2023-10-09T10:34:25;19.40;99.90
16655;DHT22;8441;51.344;7.022;2023-10-09T10:36:53;19.40;99.90
16655;DHT22;8441;51.344;7.022;2023-10-09T10:39:25;19.40;99.90
16655;DHT22;8441;51.344;7.022;2023-10-09T10:42:06;19.40;99.90
16655;DHT22;8441;51.344;7.022;2023-10-09T10:44:34;19.50;99.90
16655;DHT22;8441;51.344;7.022;2023-10-09T10:47:04;19.40;99.90
16655;DHT22;8441;51.344;7.022;2023-10-09T10:49:44;19.40;99.90
16655;DHT22;8441;51.344;7.022;2023-10-09T10:52:20;19.40;99.90
16655;DHT22;8441;51.344;7.022;2023-10-09T10:54:48;19.30;99.90
16655;DHT22;8441;51.344;7.022;2023-10-09T10:57:36;19.40;99.90
16655;DHT22;8441;51.344;7.022;2023-10-09T11:00:26;19.50;99.90
16655;DHT22;8441;51.344;7.022;2023-10-09T11:03:17;19.50;99.90
16655;DHT22;8441;51.344;7.022;2023-10-09T11:05:51;19.60;99.90
16655;DHT22;8441;51.344;7.022;2023-10-09T11:08:23;19.60;99.90
16655;DHT22;8441;51.344;7.022;2023-10-09T11:10:53;19.60;99.90
16655;DHT22;8441;51.344;7.022;2023-10-09T11:13:41;19.70;99.90
16655;DHT22;8441;51.344;7.022;2023-10-09T11:16:19;19.70;99.90
16655;DHT22;8441;51.344;7.022;2023-10-09T11:18:54;19.80;99.90
16655;DHT22;8441;51.344;7.022;2023-10-09T11:21:24;19.80;99.90
16655;DHT22;8441;51.344;7.022;2023-10-09T11:23:58;19.70;99.90
16655;DHT22;8441;51.344;7.022;2023-10-09T11:26:35;19.80;99.90
16655;DHT22;8441;51.344;7.022;2023-10-09T11:29:10;19.80;99.90
16655;DHT22;8441;51.344;7.022;2023-10-09T11:31:41;20.00;99.90
16655;DHT22;8441;51.344;7.022;2023-10-09T11:34:20;20.10;99.90
16655;DHT22;8441;51.344;7.022;2023-10-09T11:37:00;20.00;99.90
16655;DHT22;8441;51.344;7.022;2023-10-09T11:39:30;19.90;99.90
16655;DHT22;8441;51.344;7.022;2023-10-09T11:42:05;19.90;99.90
16655;DHT22;8441;51.344;7.022;2023-10-09T11:44:39;19.80;99.90
16655;DHT22;8441;51.344;7.022;2023-10-09T11:47:07;20.00;99.90
16655;DHT22;8441;51.344;7.022;2023-10-09T11:49:58;20.00;99.90
16655;DHT22;8441;51.344;7.022;2023-10-09T11:52:57;20.00;99.90
16655;DHT22;8441;51.344;7.022;2023-10-09T11:55:44;20.00;99.90
16655;DHT22;8441;51.344;7.022;2023-10-09T11:58:15;20.10;99.90
16655;DHT22;8441;51.344;7.022;2023-10-09T12:00:50;20.20;99.90
16655;DHT22;8441;51.344;7.022;2023-10-09T12:03:23;20.10;99.90
16655;DHT22;8441;51.344;7.022;2023-10-09T12:05:55;20.10;99.90
16655;DHT22;8441;51.344;7.022;2023-10-09T12:08:24;20.30;99.90
16655;DHT22;8441;51.344;7.022;2023-10-09T12:10:54;20.40;99.90
16655;DHT22;8441;51.344;7.022;2023-10-09T12:13:22;20.50;99.90
16655;DHT22;8441;51.344;7.022;2023-10-09T12:15:50;20.50;99.90
16655;DHT22;8441;51.344;7.022;2023-10-09T12:18:19;20.40;99.90
16655;DHT22;8441;51.344;7.022;2023-10-09T12:20:48;20.40;99.90
16655;DHT22;8441;51.344;7.022;2023-10-09T12:23:18;20.30;99.90
16655;DHT22;8441;51.344;7.022;2023-10-09T12:25:49;20.30;99.90
16655;DHT22;8441;51.344;7.022;2023-10-09T12:28:16;20.30;99.90
16655;DHT22;8441;51.344;7.022;2023-10-09T12:30:46;20.50;99.90
16655;DHT22;8441;51.344;7.022;2023-10-09T12:33:16;20.40;99.90
16655;DHT22;8441;51.344;7.022;2023-10-09T12:35:45;20.40;99.90
16655;DHT22;8441;51.344;7.022;2023-10-09T12:38:13;20.40;99.90
16655;DHT22;8441;51.344;7.022;2023-10-09T12:40:46;20.30;99.90
16655;DHT22;8441;51.344;7.022;2023-10-09T12:43:18;20.40;99.90
16655;DHT22;8441;51.344;7.022;2023-10-09T12:45:47;20.50;99.90
16655;DHT22;8441;51.344;7.022;2023-10-09T12:48:14;20.50;99.90
16655;DHT22;8441;51.344;7.022;2023-10-09T12:50:42;20.60;99.90
16655;DHT22;8441;51.344;7.022;2023-10-09T12:53:10;20.60;99.90
16655;DHT22;8441;51.344;7.022;2023-10-09T12:55:43;20.40;99.90
16655;DHT22;8441;51.344;7.022;2023-10-09T12:58:12;20.30;99.90
16655;DHT22;8441;51.344;7.022;2023-10-09T13:00:42;20.30;99.90
16655;DHT22;8441;51.344;7.022;2023-10-09T13:03:15;20.30;99.90
16655;DHT22;8441;51.344;7.022;2023-10-09T13:05:47;20.30;99.90
16655;DHT22;8441;51.344;7.022;2023-10-09T13:08:22;20.20;99.90
16655;DHT22;8441;51.344;7.022;2023-10-09T13:10:50;20.30;99.90
16655;DHT22;8441;51.344;7.022;2023-10-09T13:13:29;20.30;99.90
16655;DHT22;8441;51.344;7.022;2023-10-09T13:16:07;20.40;99.90
16655;DHT22;8441;51.344;7.022;2023-10-09T13:18:38;20.40;99.90
16655;DHT22;8441;51.344;7.022;2023-10-09T13:21:06;20.60;99.90
16655;DHT22;8441;51.344;7.022;2023-10-09T13:23:33;20.60;99.90
16655;DHT22;8441;51.344;7.022;2023-10-09T13:26:06;20.60;99.90
16655;DHT22;8441;51.344;7.022;2023-10-09T13:28:46;20.70;99.90
16655;DHT22;8441;51.344;7.022;2023-10-09T13:31:14;20.60;99.90
16655;DHT22;8441;51.344;7.022;2023-10-09T13:33:43;20.70;99.90
16655;DHT22;8441;51.344;7.022;2023-10-09T13:36:10;20.70;99.90
16655;DHT22;8441;51.344;7.022;2023-10-09T13:38:45;20.70;99.90
16655;DHT22;8441;51.344;7.022;2023-10-09T13:41:13;20.60;99.90
16655;DHT22;8441;51.344;7.022;2023-10-09T13:43:43;20.60;99.90
16655;DHT22;8441;51.344;7.022;2023-10-09T13:46:12;20.60;99.90
16655;DHT22;8441;51.344;7.022;2023-10-09T13:48:43;20.70;99.90
16655;DHT22;8441;51.344;7.022;2023-10-09T13:51:12;20.90;99.90
16655;DHT22;8441;51.344;7.022;2023-10-09T13:53:43;20.90;99.90
16655;DHT22;8441;51.344;7.022;2023-10-09T13:56:14;21.00;99.90
16655;DHT22;8441;51.344;7.022;2023-10-09T13:58:47;21.10;99.90
16655;DHT22;8441;51.344;7.022;2023-10-09T14:01:18;21.30;99.90
16655;DHT22;8441;51.344;7.022;2023-10-09T14:03:54;21.10;99.90
16655;DHT22;8441;51.344;7.022;2023-10-09T14:06:22;20.90;99.90
16655;DHT22;8441;51.344;7.022;2023-10-09T14:08:58;21.00;99.90
16655;DHT22;8441;51.344;7.022;2023-10-09T14:11:25;21.00;99.90
16655;DHT22;8441;51.344;7.022;2023-10-09T14:13:53;20.90;99.90
16655;DHT22;8441;51.344;7.022;2023-10-09T14:16:22;20.90;99.90
16655;DHT22;8441;51.344;7.022;2023-10-09T14:18:54;20.70;99.90
16655;DHT22;8441;51.344;7.022;2023-10-09T14:21:24;20.70;99.90
16655;DHT22;8441;51.344;7.022;2023-10-09T14:23:54;20.60;99.90
16655;DHT22;8441;51.344;7.022;2023-10-09T14:26:25;20.50;99.90
16655;DHT22;8441;51.344;7.022;2023-10-09T14:28:52;20.40;99.90
16655;DHT22;8441;51.344;7.022;2023-10-09T14:31:24;20.40;99.90
16655;DHT22;8441;51.344;7.022;2023-10-09T14:33:56;20.30;99.90
16655;DHT22;8441;51.344;7.022;2023-10-09T14:36:23;20.30;99.90
16655;DHT22;8441;51.344;7.022;2023-10-09T14:38:59;20.10;99.90
16655;DHT22;8441;51.344;7.022;2023-10-09T14:41:27;20.00;99.90
16655;DHT22;8441;51.344;7.022;2023-10-09T14:43:59;20.00;99.90
16655;DHT22;8441;51.344;7.022;2023-10-09T14:46:27;20.00;99.90
16655;DHT22;8441;51.344;7.022;2023-10-09T14:48:56;20.10;99.90
16655;DHT22;8441;51.344;7.022;2023-10-09T14:51:24;20.10;99.90
16655;DHT22;8441;51.344;7.022;2023-10-09T14:53:55;20.10;99.90
16655;DHT22;8441;51.344;7.022;2023-10-09T14:56:27;20.00;99.90
16655;DHT22;8441;51.344;7.022;2023-10-09T14:58:59;20.10;99.90
16655;DHT22;8441;51.344;7.022;2023-10-09T15:01:29;20.00;99.90
16655;DHT22;8441;51.344;7.022;2023-10-09T15:03:57;20.00;99.90
16655;DHT22;8441;51.344;7.022;2023-10-09T15:06:26;19.90;99.90
16655;DHT22;8441;51.344;7.022;2023-10-09T15:08:56;19.80;99.90
16655;DHT22;8441;51.344;7.022;2023-10-09T15:11:24;19.80;99.90
16655;DHT22;8441;51.344;7.022;2023-10-09T15:13:54;19.90;99.90
16655;DHT22;8441;51.344;7.022;2023-10-09T15:16:22;19.80;99.90
16655;DHT22;8441;51.344;7.022;2023-10-09T15:18:54;19.80;99.90
16655;DHT22;8441;51.344;7.022;2023-10-09T15:21:23;19.60;99.90
16655;DHT22;8441;51.344;7.022;2023-10-09T15:23:53;19.60;99.90
16655;DHT22;8441;51.344;7.022;2023-10-09T15:26:21;19.60;99.90
16655;DHT22;8441;51.344;7.022;2023-10-09T15:28:50;19.60;99.90
16655;DHT22;8441;51.344;7.022;2023-10-09T15:31:17;19.60;99.90
16655;DHT22;8441;51.344;7.022;2023-10-09T15:33:47;19.60;99.90
16655;DHT22;8441;51.344;7.022;2023-10-09T15:36:18;19.60;99.90
16655;DHT22;8441;51.344;7.022;2023-10-09T15:38:46;19.50;99.90
16655;DHT22;8441;51.344;7.022;2023-10-09T15:41:16;19.60;99.90
16655;DHT22;8441;51.344;7.022;2023-10-09T15:43:47;19.50;99.90
16655;DHT22;8441;51.344;7.022;2023-10-09T15:46:14;19.50;99.90
16655;DHT22;8441;51.344;7.022;2023-10-09T15:48:42;19.40;99.90
16655;DHT22;8441;51.344;7.022;2023-10-09T15:51:11;19.40;99.90
16655;DHT22;8441;51.344;7.022;2023-10-09T15:53:42;19.30;99.90
16655;DHT22;8441;51.344;7.022;2023-10-09T15:56:09;19.40;99.90
16655;DHT22;8441;51.344;7.022;2023-10-09T15:58:39;19.40;99.90
16655;DHT22;8441;51.344;7.022;2023-10-09T16:01:10;19.40;99.90
16655;DHT22;8441;51.344;7.022;2023-10-09T16:03:40;19.50;99.90
16655;DHT22;8441;51.344;7.022;2023-10-09T16:06:08;19.40;99.90
16655;DHT22;8441;51.344;7.022;2023-10-09T16:08:38;19.40;99.90
16655;DHT22;8441;51.344;7.022;2023-10-09T16:11:07;19.40;99.90
16655;DHT22;8441;51.344;7.022;2023-10-09T16:13:34;19.30;99.90
16655;DHT22;8441;51.344;7.022;2023-10-09T16:16:04;19.20;99.90
16655;DHT22;8441;51.344;7.022;2023-10-09T16:18:33;19.20;99.90
16655;DHT22;8441;51.344;7.022;2023-10-09T16:21:01;19.20;99.90
16655;DHT22;8441;51.344;7.022;2023-10-09T16:23:30;19.20;99.90
16655;DHT22;8441;51.344;7.022;2023-10-09T16:25:58;19.10;99.90
16655;DHT22;8441;51.344;7.022;2023-10-09T16:28:28;19.00;99.90
16655;DHT22;8441;51.344;7.022;2023-10-09T16:30:55;19.00;99.90